Hauptseite
METAR-TAF:

METAR-TAF

Flughäfen :

Flughafen Lahr

Lahr, Deutschland

Breite: 48-22-09N, Länge: 007-49-40E, Höhe: 156 m

Beobachtung

Neuester Wetterbericht von vor 9 Stunden und 24 Minuten, um 18:50 UTC
Wind 2 kt aus unterschiedlichen Richtungen
Temperatur 9°C
Luftfeuchtigkeit 76%
Luftdruck 1025 hPa
Sichtweite 10 km oder mehr
keine Wolken unter 1500 m und keine Kumulonimbus oder Gewitterwolken

METAR: EDTL 211850Z VRB02KT CAVOK 09/05 Q1025

Zeit: 06:14 (04:14 UTC)

Prognose

Neuester Wetterbericht von vor 9 Stunden und 57 Minuten, um 18:17 UTC
Gültige Prognose vom 21 um 19 UTC bis 21 um 24 UTC
Wind 3 kt aus unterschiedlichen Richtungen
Sichtweite 10 km oder mehr
keine Wolken unter 1500 m und keine Kumulonimbus oder Gewitterwolken
Übergehend zu
vom 21 um 21 UTC bis 21 um 24 UTC
Sichtweite: 2500 m
feuchter Dunst

TAF: EDTL 211817Z 2119/2124 VRB03KT CAVOK BECMG 2121/2124 2500 BR

Wetterbeobachtungen und Prognosen von mehr als 4000 Flughäfen (METAR und TAF Bericht).

Die verfügbaren Stationen werden durch gelbe und rote Markierungen auf der Karte dargestellt.

Führen Sie die Maus auf sie, um den Namen der Station zu sehen.

Darauf klicken, um die Beobachtung von Wetterbeobachtungen und Prognosen zu sehen.

Um die Karte zu ändern : klicken Sie auf den grünen Tasten mit einem schwarzen Kreuz Zum Vergrößern, auf den grünen Button mit einem Gedankenstrich zu verkleinern, oder auf die grünen Pfeile für benachbarte Karten.


METAR-TAF: